Time;durP1;ratioP1;P1;durP2;ratioP2;P2;SDS_P1;SDS_P2;PMS_P1;PMS_P2;Temp;Humidity;BMP_temperature;BMP_pressure;BME280_temperature;BME280_humidity;BME280_pressure;Samples;Min_cycle;Max_cycle;Signal;HPM_P1;HPM_P2
2022/10/21 00:01:44;;;;;;;;;;;;;;;;;;6234883;22;19926;-89
2022/10/21 00:04:10;;;;;;;;;;;;;;;;;;6257716;22;19986;-88
2022/10/21 00:06:36;;;;;;;;;;;;;;;;;;6258737;22;19929;-89
2022/10/21 00:09:05;;;;;;;;;;;;;;;;;;6231676;22;19926;-89
2022/10/21 00:11:31;;;;;;;;;;;;;;;;;;6228357;22;19954;-89
2022/10/21 00:14:00;;;;;;;;;;;;;;;;;;6236840;22;19915;-89
2022/10/21 00:16:28;;;;;;;;;;;;;;;;;;6236404;22;19919;-88
2022/10/21 00:18:54;;;;;;;;;;;;;;;;;;6235066;22;19915;-89
2022/10/21 00:21:23;;;;;;;;;;;;;;;;;;6232493;22;19969;-89
2022/10/21 00:23:52;;;;;;;;;;;;;;;;;;6232603;22;20000;-89
2022/10/21 00:26:18;;;;;;;;;;;;;;;;;;6235141;22;20006;-88
2022/10/21 00:28:47;;;;;;;;;;;;;;;;;;6236453;22;20017;-88
2022/10/21 00:31:15;;;;;;;;;;;;;;;;;;6235002;22;20330;-88
2022/10/21 00:33:47;;;;;;;;;;;;;;;;;;6235687;22;19961;-89
2022/10/21 00:36:30;;;;;;;;;;;;;;;;;;6259626;22;19919;-89
2022/10/21 00:38:59;;;;;;;;;;;;;;;;;;6237870;22;20221;-89
2022/10/21 00:41:28;;;;;;;;;;;;;;;;;;6261325;22;19985;-89
2022/10/21 00:43:54;;;;;;;;;;;;;;;;;;6236474;22;20372;-89
2022/10/21 00:46:26;;;;;;;;;;;;;;;;;;6238772;22;19919;-89
2022/10/21 00:48:52;;;;;;;;;;;;;;;;;;6238477;22;19926;-89
2022/10/21 00:51:21;;;;;;;;;;;;;;;;;;6233540;22;19919;-89
2022/10/21 00:53:50;;;;;;;;;;;;;;;;;;6241088;22;20244;-89
2022/10/21 00:56:19;;;;;;;;;;;;;;;;;;6266688;22;19918;-89
2022/10/21 00:58:45;;;;;;;;;;;;;;;;;;6268848;22;19923;-88
2022/10/21 01:01:14;;;;;;;;;;;;;;;;;;6265795;22;19923;-89
2022/10/21 01:03:40;;;;;;;;;;;;;;;;;;6267250;22;19922;-89
2022/10/21 01:06:06;;;;;;;;;;;;;;;;;;6291144;22;20403;-89
2022/10/21 01:08:32;;;;;;;;;;;;;;;;;;6265483;22;19918;-89
2022/10/21 01:11:01;;;;;;;;;;;;;;;;;;6264480;22;19926;-89
2022/10/21 01:13:27;;;;;;;;;;;;;;;;;;6263432;22;19923;-90
2022/10/21 01:15:59;;;;;;;;;;;;;;;;;;6264377;22;20410;-89
2022/10/21 01:18:25;;;;;;;;;;;;;;;;;;6262529;22;19918;-89
2022/10/21 01:21:01;;;;;;;;;;;;;;;;;;6258536;22;20251;-90
2022/10/21 01:23:36;;;;;;;;;;;;;;;;;;6261327;22;19919;-90
2022/10/21 01:26:09;;;;;;;;;;;;;;;;;;6260030;22;19919;-90
2022/10/21 01:28:38;;;;;;;;;;;;;;;;;;6262236;22;20381;-89
2022/10/21 01:31:04;;;;;;;;;;;;;;;;;;6263292;22;19919;-89
2022/10/21 01:33:30;;;;;;;;;;;;;;;;;;6264363;22;19941;-89
2022/10/21 01:35:59;;;;;;;;;;;;;;;;;;6264093;22;19926;-89
2022/10/21 01:38:25;;;;;;;;;;;;;;;;;;6263405;22;19918;-89
2022/10/21 01:40:54;;;;;;;;;;;;;;;;;;6263459;22;19933;-89
2022/10/21 01:43:20;;;;;;;;;;;;;;;;;;6259803;22;20298;-89
2022/10/21 01:45:46;;;;;;;;;;;;;;;;;;6265914;22;19969;-89
2022/10/21 01:48:18;;;;;;;;;;;;;;;;;;6252752;22;19970;-88
2022/10/21 01:50:44;;;;;;;;;;;;;;;;;;6260665;22;19914;-89
2022/10/21 01:53:12;;;;;;;;;;;;;;;;;;6262231;22;20322;-89
2022/10/21 01:55:38;;;;;;;;;;;;;;;;;;6259412;22;19923;-89
2022/10/21 01:58:12;;;;;;;;;;;;;;;;;;6232216;22;20020;-89
2022/10/21 02:00:51;;;;;;;;;;;;;;;;;;6232521;22;19978;-89
2022/10/21 02:03:23;;;;;;;;;;;;;;;;;;6230325;22;19919;-89
2022/10/21 02:05:57;;;;;;;;;;;;;;;;;;6257619;22;20366;-89
2022/10/21 02:08:26;;;;;;;;;;;;;;;;;;6231679;22;19945;-89
2022/10/21 02:10:52;;;;;;;;;;;;;;;;;;6234236;22;19916;-89
2022/10/21 02:13:18;;;;;;;;;;;;;;;;;;6230232;22;19923;-89
2022/10/21 02:15:44;;;;;;;;;;;;;;;;;;6231155;22;20401;-89
2022/10/21 02:18:10;;;;;;;;;;;;;;;;;;6230475;22;19965;-89
2022/10/21 02:20:45;;;;;;;;;;;;;;;;;;6234552;22;19929;-89
2022/10/21 02:23:16;;;;;;;;;;;;;;;;;;6231111;22;19919;-89
2022/10/21 02:25:42;;;;;;;;;;;;;;;;;;6260154;22;20335;-89
2022/10/21 02:28:08;;;;;;;;;;;;;;;;;;6231304;22;19943;-89
2022/10/21 02:30:34;;;;;;;;;;;;;;;;;;6232275;22;19950;-89
2022/10/21 02:33:03;;;;;;;;;;;;;;;;;;6230469;22;19946;-89
2022/10/21 02:35:29;;;;;;;;;;;;;;;;;;6233645;22;19919;-89
2022/10/21 02:37:55;;;;;;;;;;;;;;;;;;6259299;22;20328;-89
2022/10/21 02:40:21;;;;;;;;;;;;;;;;;;6233208;22;19919;-88
2022/10/21 02:42:47;;;;;;;;;;;;;;;;;;6262422;22;19926;-88
2022/10/21 02:45:13;;;;;;;;;;;;;;;;;;6231668;22;20103;-89
2022/10/21 02:47:39;;;;;;;;;;;;;;;;;;6232381;22;20355;-89
2022/10/21 02:50:05;;;;;;;;;;;;;;;;;;6233250;22;19919;-88
2022/10/21 02:52:31;;;;;;;;;;;;;;;;;;6234800;22;20045;-87
2022/10/21 02:54:57;;;;;;;;;;;;;;;;;;6252505;22;20330;-87
2022/10/21 02:57:23;;;;;;;;;;;;;;;;;;6264787;22;20269;-88
2022/10/21 02:59:49;;;;;;;;;;;;;;;;;;6263055;22;19922;-88
2022/10/21 03:02:15;;;;;;;;;;;;;;;;;;6262832;22;19919;-88
2022/10/21 03:04:44;;;;;;;;;;;;;;;;;;6264484;22;20669;-88
2022/10/21 03:07:10;;;;;;;;;;;;;;;;;;6264379;22;20265;-87
2022/10/21 03:09:36;;;;;;;;;;;;;;;;;;6268160;22;19926;-87
2022/10/21 03:12:02;;;;;;;;;;;;;;;;;;6267146;22;19915;-88
2022/10/21 03:14:28;;;;;;;;;;;;;;;;;;6268167;22;19918;-88
2022/10/21 03:17:02;;;;;;;;;;;;;;;;;;6268564;22;19915;-88
2022/10/21 03:19:28;;;;;;;;;;;;;;;;;;6266245;22;19921;-88
2022/10/21 03:21:54;;;;;;;;;;;;;;;;;;6267153;22;20259;-88
2022/10/21 03:24:20;;;;;;;;;;;;;;;;;;6264492;22;20220;-87
2022/10/21 03:26:46;;;;;;;;;;;;;;;;;;6267543;22;20001;-87
2022/10/21 03:29:12;;;;;;;;;;;;;;;;;;6265536;22;19946;-88
2022/10/21 03:31:38;;;;;;;;;;;;;;;;;;6267352;22;20414;-88
2022/10/21 03:34:03;;;;;;;;;;;;;;;;;;6264399;22;19919;-87
2022/10/21 03:36:29;;;;;;;;;;;;;;;;;;6268322;22;19930;-88
2022/10/21 03:38:55;;;;;;;;;;;;;;;;;;6266491;22;19926;-88
2022/10/21 03:41:21;;;;;;;;;;;;;;;;;;6264944;22;19923;-88
2022/10/21 03:43:47;;;;;;;;;;;;;;;;;;6268284;22;20213;-88
2022/10/21 03:46:13;;;;;;;;;;;;;;;;;;6264181;22;19919;-88
2022/10/21 03:48:39;;;;;;;;;;;;;;;;;;6265996;22;20002;-88
2022/10/21 03:51:05;;;;;;;;;;;;;;;;;;6293043;22;19941;-89
2022/10/21 03:53:34;;;;;;;;;;;;;;;;;;6268329;22;20381;-88
2022/10/21 03:56:00;;;;;;;;;;;;;;;;;;6263887;22;20336;-88
2022/10/21 03:58:29;;;;;;;;;;;;;;;;;;6268201;22;20267;-89
2022/10/21 04:00:55;;;;;;;;;;;;;;;;;;6268126;22;20239;-88
2022/10/21 04:03:23;;;;;;;;;;;;;;;;;;6262217;22;19922;-88
2022/10/21 04:05:49;;;;;;;;;;;;;;;;;;6268671;22;19926;-88
2022/10/21 04:08:15;;;;;;;;;;;;;;;;;;6264227;22;19926;-86
2022/10/21 04:10:43;;;;;;;;;;;;;;;;;;6266747;22;19919;-87
2022/10/21 04:13:14;;;;;;;;;;;;;;;;;;6264972;22;20650;-87
2022/10/21 04:15:40;;;;;;;;;;;;;;;;;;6266986;22;19925;-87
2022/10/21 04:18:06;;;;;;;;;;;;;;;;;;6265361;22;20260;-87
2022/10/21 04:20:32;;;;;;;;;;;;;;;;;;6267782;22;20025;-87
2022/10/21 04:22:59;;;;;;;;;;;;;;;;;;6266111;22;19954;-87
2022/10/21 04:25:25;;;;;;;;;;;;;;;;;;6267626;22;19918;-87
2022/10/21 04:27:51;;;;;;;;;;;;;;;;;;6265842;22;19929;-88
2022/10/21 04:30:17;;;;;;;;;;;;;;;;;;6265459;22;20332;-88
2022/10/21 04:32:43;;;;;;;;;;;;;;;;;;6268338;22;19922;-88
2022/10/21 04:35:12;;;;;;;;;;;;;;;;;;6264296;22;19918;-88
2022/10/21 04:37:39;;;;;;;;;;;;;;;;;;6268760;22;19926;-87
2022/10/21 04:40:05;;;;;;;;;;;;;;;;;;6290672;22;19979;-88
2022/10/21 04:42:37;;;;;;;;;;;;;;;;;;6264379;22;19918;-88
2022/10/21 04:45:03;;;;;;;;;;;;;;;;;;6262596;22;19919;-88
2022/10/21 04:47:29;;;;;;;;;;;;;;;;;;6267492;22;19915;-87
2022/10/21 04:49:55;;;;;;;;;;;;;;;;;;6267127;22;20405;-88
2022/10/21 04:52:21;;;;;;;;;;;;;;;;;;6264896;22;19927;-87
2022/10/21 04:54:47;;;;;;;;;;;;;;;;;;6270534;22;19919;-88
2022/10/21 04:57:16;;;;;;;;;;;;;;;;;;6262143;22;19919;-88
2022/10/21 04:59:42;;;;;;;;;;;;;;;;;;6266957;22;19973;-88
2022/10/21 05:02:08;;;;;;;;;;;;;;;;;;6266771;22;19919;-88
2022/10/21 05:04:34;;;;;;;;;;;;;;;;;;6267481;22;19967;-88
2022/10/21 05:07:00;;;;;;;;;;;;;;;;;;6267414;22;20374;-88
2022/10/21 05:09:26;;;;;;;;;;;;;;;;;;6267218;22;20330;-88
2022/10/21 05:11:55;;;;;;;;;;;;;;;;;;6265630;22;19922;-88
2022/10/21 05:14:21;;;;;;;;;;;;;;;;;;6268314;22;20247;-88
2022/10/21 05:16:47;;;;;;;;;;;;;;;;;;6297594;22;19957;-88
2022/10/21 05:19:13;;;;;;;;;;;;;;;;;;6266211;22;19922;-88
2022/10/21 05:21:39;;;;;;;;;;;;;;;;;;6264712;22;19968;-88
2022/10/21 05:24:05;;;;;;;;;;;;;;;;;;6263888;22;19926;-88
2022/10/21 05:26:31;;;;;;;;;;;;;;;;;;6265651;22;19922;-88
2022/10/21 05:29:05;;;;;;;;;;;;;;;;;;6266367;22;20639;-89
2022/10/21 05:31:31;;;;;;;;;;;;;;;;;;6267167;22;20383;-88
2022/10/21 05:34:00;;;;;;;;;;;;;;;;;;6262086;22;19927;-88
2022/10/21 05:36:26;;;;;;;;;;;;;;;;;;6263855;22;20052;-88
2022/10/21 05:38:52;;;;;;;;;;;;;;;;;;6266350;22;20367;-88
2022/10/21 05:41:20;;;;;;;;;;;;;;;;;;6260193;22;19926;-88
2022/10/21 05:43:46;;;;;;;;;;;;;;;;;;6264244;22;19915;-88
2022/10/21 05:46:12;;;;;;;;;;;;;;;;;;6288539;22;19941;-88
2022/10/21 05:48:38;;;;;;;;;;;;;;;;;;6262796;22;20387;-88
2022/10/21 05:51:07;;;;;;;;;;;;;;;;;;6258788;22;20022;-87
2022/10/21 05:53:33;;;;;;;;;;;;;;;;;;6265621;22;19918;-89
2022/10/21 05:55:59;;;;;;;;;;;;;;;;;;6263326;22;19933;-89
2022/10/21 05:58:25;;;;;;;;;;;;;;;;;;6266263;22;19919;-86
2022/10/21 06:00:53;;;;;;;;;;;;;;;;;;6267458;22;19922;-88
2022/10/21 06:03:19;;;;;;;;;;;;;;;;;;6261933;22;20303;-88
2022/10/21 06:05:48;;;;;;;;;;;;;;;;;;6261232;22;19919;-89
2022/10/21 06:08:17;;;;;;;;;;;;;;;;;;6258370;22;20235;-88
2022/10/21 06:10:46;;;;;;;;;;;;;;;;;;6266013;22;19919;-88
2022/10/21 06:13:14;;;;;;;;;;;;;;;;;;6264693;22;19938;-88
2022/10/21 06:15:43;;;;;;;;;;;;;;;;;;6270707;22;19926;-87
2022/10/21 06:18:09;;;;;;;;;;;;;;;;;;6262695;22;19919;-87
2022/10/21 06:20:47;;;;;;;;;;;;;;;;;;6265151;22;19980;-88
2022/10/21 06:23:15;;;;;;;;;;;;;;;;;;6263202;22;19919;-86
2022/10/21 06:25:41;;;;;;;;;;;;;;;;;;6267341;22;19930;-86
2022/10/21 06:28:07;;;;;;;;;;;;;;;;;;6264529;22;20256;-87
2022/10/21 06:30:33;;;;;;;;;;;;;;;;;;6269342;22;19919;-87
2022/10/21 06:33:02;;;;;;;;;;;;;;;;;;6265427;22;20251;-87
2022/10/21 06:35:28;;;;;;;;;;;;;;;;;;6269835;22;20017;-86
2022/10/21 06:37:54;;;;;;;;;;;;;;;;;;6269485;22;19958;-87
2022/10/21 06:40:22;;;;;;;;;;;;;;;;;;6266371;22;19923;-87
2022/10/21 06:42:48;;;;;;;;;;;;;;;;;;6267044;22;19918;-87
2022/10/21 06:45:14;;;;;;;;;;;;;;;;;;6260127;22;20322;-87
2022/10/21 06:47:40;;;;;;;;;;;;;;;;;;6265464;22;20315;-87
2022/10/21 06:50:06;;;;;;;;;;;;;;;;;;6263655;22;19919;-88
2022/10/21 06:52:32;;;;;;;;;;;;;;;;;;6268141;22;20270;-88
2022/10/21 06:54:58;;;;;;;;;;;;;;;;;;6261541;22;19926;-87
2022/10/21 06:57:26;;;;;;;;;;;;;;;;;;6265930;22;19930;-87
2022/10/21 06:59:52;;;;;;;;;;;;;;;;;;6267822;22;19958;-87
2022/10/21 07:02:18;;;;;;;;;;;;;;;;;;6263549;22;19919;-87
2022/10/21 07:04:47;;;;;;;;;;;;;;;;;;6266601;22;19943;-86
2022/10/21 07:07:13;;;;;;;;;;;;;;;;;;6290269;22;19923;-87
2022/10/21 07:09:39;;;;;;;;;;;;;;;;;;6257899;22;20232;-87
2022/10/21 07:12:05;;;;;;;;;;;;;;;;;;6265235;22;19919;-87
2022/10/21 07:14:31;;;;;;;;;;;;;;;;;;6265248;22;19923;-87
2022/10/21 07:16:57;;;;;;;;;;;;;;;;;;6267928;22;19918;-87
2022/10/21 07:19:23;;;;;;;;;;;;;;;;;;6267988;22;19919;-87
2022/10/21 07:21:49;;;;;;;;;;;;;;;;;;6267050;22;19915;-87
2022/10/21 07:24:15;;;;;;;;;;;;;;;;;;6264086;22;19926;-87
2022/10/21 07:26:41;;;;;;;;;;;;;;;;;;6265788;22;19915;-87
2022/10/21 07:29:07;;;;;;;;;;;;;;;;;;6265564;22;20340;-87
2022/10/21 07:31:33;;;;;;;;;;;;;;;;;;6269208;22;20321;-88
2022/10/21 07:33:59;;;;;;;;;;;;;;;;;;6264351;22;19919;-88
2022/10/21 07:36:25;;;;;;;;;;;;;;;;;;6267297;22;20503;-88
2022/10/21 07:38:51;;;;;;;;;;;;;;;;;;6268590;22;19918;-87
2022/10/21 07:41:20;;;;;;;;;;;;;;;;;;6263446;22;20350;-87
2022/10/21 07:43:46;;;;;;;;;;;;;;;;;;6268267;22;20360;-87
2022/10/21 07:46:12;;;;;;;;;;;;;;;;;;6265335;22;19919;-87
2022/10/21 07:48:38;;;;;;;;;;;;;;;;;;6267137;22;19918;-87
2022/10/21 07:51:04;;;;;;;;;;;;;;;;;;6265987;22;19924;-87
2022/10/21 07:53:30;;;;;;;;;;;;;;;;;;6267087;22;20247;-86
2022/10/21 07:55:56;;;;;;;;;;;;;;;;;;6266372;22;20205;-87
2022/10/21 07:58:22;;;;;;;;;;;;;;;;;;6266058;22;19926;-87
2022/10/21 08:00:48;;;;;;;;;;;;;;;;;;6293836;22;19923;-87
2022/10/21 08:03:14;;;;;;;;;;;;;;;;;;6262019;22;20236;-87
2022/10/21 08:05:42;;;;;;;;;;;;;;;;;;6267700;22;19918;-88
2022/10/21 08:08:08;;;;;;;;;;;;;;;;;;6262386;22;20208;-88
2022/10/21 08:10:34;;;;;;;;;;;;;;;;;;6266897;22;19925;-88
2022/10/21 08:13:00;;;;;;;;;;;;;;;;;;6265871;22;19919;-88
2022/10/21 08:15:26;;;;;;;;;;;;;;;;;;6267157;22;20282;-88
2022/10/21 08:17:52;;;;;;;;;;;;;;;;;;6266220;22;19922;-88
2022/10/21 08:20:18;;;;;;;;;;;;;;;;;;6263587;22;19987;-88
2022/10/21 08:22:47;;;;;;;;;;;;;;;;;;6268663;22;19922;-88
2022/10/21 08:25:15;;;;;;;;;;;;;;;;;;6265554;22;19919;-88
2022/10/21 08:27:41;;;;;;;;;;;;;;;;;;6267840;22;19919;-88
2022/10/21 08:30:07;;;;;;;;;;;;;;;;;;6265134;22;19918;-86
2022/10/21 08:32:33;;;;;;;;;;;;;;;;;;6268906;22;19919;-87
2022/10/21 08:34:59;;;;;;;;;;;;;;;;;;6262232;22;19918;-87
2022/10/21 08:37:25;;;;;;;;;;;;;;;;;;6266427;22;19922;-87
2022/10/21 08:39:51;;;;;;;;;;;;;;;;;;6267433;22;19962;-86
2022/10/21 08:42:17;;;;;;;;;;;;;;;;;;6266229;22;20416;-87
2022/10/21 08:44:43;;;;;;;;;;;;;;;;;;6268075;22;20382;-87
2022/10/21 08:47:09;;;;;;;;;;;;;;;;;;6266481;22;19915;-87
2022/10/21 08:49:38;;;;;;;;;;;;;;;;;;6266731;22;19968;-87
2022/10/21 08:52:04;;;;;;;;;;;;;;;;;;6265653;22;19914;-87
2022/10/21 08:54:30;;;;;;;;;;;;;;;;;;6267254;22;19915;-88
2022/10/21 08:56:59;;;;;;;;;;;;;;;;;;6263042;22;19924;-87
2022/10/21 08:59:25;;;;;;;;;;;;;;;;;;6237019;22;20401;-87
2022/10/21 09:01:53;;;;;;;;;;;;;;;;;;6261276;22;19927;-87
2022/10/21 09:04:19;;;;;;;;;;;;;;;;;;6262184;22;19926;-87
2022/10/21 09:06:48;;;;;;;;;;;;;;;;;;6239721;22;19941;-87
2022/10/21 09:09:14;;;;;;;;;;;;;;;;;;6262394;22;20383;-87
2022/10/21 09:11:40;;;;;;;;;;;;;;;;;;6237436;22;19923;-87
2022/10/21 09:14:06;;;;;;;;;;;;;;;;;;6236900;22;20298;-87
2022/10/21 09:16:32;;;;;;;;;;;;;;;;;;6265040;22;19919;-87
2022/10/21 09:18:58;;;;;;;;;;;;;;;;;;6262513;22;19919;-87
2022/10/21 09:21:24;;;;;;;;;;;;;;;;;;6264011;22;19923;-87
2022/10/21 09:23:50;;;;;;;;;;;;;;;;;;6239555;22;20348;-87
2022/10/21 09:26:16;;;;;;;;;;;;;;;;;;6262602;22;19993;-88
2022/10/21 09:28:42;;;;;;;;;;;;;;;;;;6238673;22;19947;-87
2022/10/21 09:31:08;;;;;;;;;;;;;;;;;;6237794;22;20347;-87
2022/10/21 09:33:35;;;;;;;;;;;;;;;;;;6263735;22;19990;-87
2022/10/21 09:36:01;;;;;;;;;;;;;;;;;;6236234;22;19919;-87
2022/10/21 09:38:27;;;;;;;;;;;;;;;;;;6238013;22;19942;-88
2022/10/21 09:40:58;;;;;;;;;;;;;;;;;;6237713;22;20324;-87
2022/10/21 09:43:24;;;;;;;;;;;;;;;;;;6239856;22;19925;-87
2022/10/21 09:45:50;;;;;;;;;;;;;;;;;;6240246;22;19919;-87
2022/10/21 09:48:16;;;;;;;;;;;;;;;;;;6236840;22;20320;-87
2022/10/21 09:50:42;;;;;;;;;;;;;;;;;;6241479;22;19990;-88
2022/10/21 09:53:08;;;;;;;;;;;;;;;;;;6237862;22;19958;-88
2022/10/21 09:55:37;;;;;;;;;;;;;;;;;;6243392;22;19986;-87
2022/10/21 09:58:03;;;;;;;;;;;;;;;;;;6266720;22;20349;-87
2022/10/21 10:00:29;;;;;;;;;;;;;;;;;;6268474;22;20217;-88
2022/10/21 10:02:55;;;;;;;;;;;;;;;;;;6266217;22;19926;-88
2022/10/21 10:05:21;;;;;;;;;;;;;;;;;;6264511;22;19930;-88
2022/10/21 10:07:54;;;;;;;;;;;;;;;;;;6267680;22;19919;-88
2022/10/21 10:10:20;;;;;;;;;;;;;;;;;;6266795;22;20259;-88
2022/10/21 10:12:49;;;;;;;;;;;;;;;;;;6267452;22;19919;-88
2022/10/21 10:15:18;;;;;;;;;;;;;;;;;;6264401;22;19919;-88
2022/10/21 10:17:47;;;;;;;;;;;;;;;;;;6268585;22;19918;-88
2022/10/21 10:20:13;;;;;;;;;;;;;;;;;;6266613;22;19923;-88
2022/10/21 10:22:42;;;;;;;;;;;;;;;;;;6268554;22;19919;-88
2022/10/21 10:25:08;;;;;;;;;;;;;;;;;;6266037;22;19969;-89
2022/10/21 10:27:34;;;;;;;;;;;;;;;;;;6266910;22;19915;-89
2022/10/21 10:30:03;;;;;;;;;;;;;;;;;;6266092;22;20422;-89
2022/10/21 10:32:30;;;;;;;;;;;;;;;;;;6269451;22;19926;-89
2022/10/21 10:35:14;;;;;;;;;;;;;;;;;;6267393;22;20269;-96
2022/10/21 10:37:40;;;;;;;;;;;;;;;;;;6270067;22;19914;-88
2022/10/21 10:40:09;;;;;;;;;;;;;;;;;;6268007;22;19922;-88
2022/10/21 10:42:36;;;;;;;;;;;;;;;;;;6268935;22;19915;-89
2022/10/21 10:45:07;;;;;;;;;;;;;;;;;;6268398;22;19923;-88
2022/10/21 10:47:33;;;;;;;;;;;;;;;;;;6270221;22;19919;-89
2022/10/21 10:49:59;;;;;;;;;;;;;;;;;;6265513;22;20350;-89
2022/10/21 10:52:25;;;;;;;;;;;;;;;;;;6268735;22;19919;-87
2022/10/21 10:54:55;;;;;;;;;;;;;;;;;;6269817;22;19958;-88
2022/10/21 10:57:22;;;;;;;;;;;;;;;;;;6262868;22;19961;-87
2022/10/21 10:59:50;;;;;;;;;;;;;;;;;;6264818;22;19922;-87
2022/10/21 11:02:16;;;;;;;;;;;;;;;;;;6236681;22;19926;-89
2022/10/21 11:04:42;;;;;;;;;;;;;;;;;;6263826;22;19919;-87
2022/10/21 11:07:08;;;;;;;;;;;;;;;;;;6258676;22;20533;-88
2022/10/21 11:09:34;;;;;;;;;;;;;;;;;;6238551;22;19962;-90
2022/10/21 11:12:00;;;;;;;;;;;;;;;;;;6261046;22;20228;-88
2022/10/21 11:14:31;;;;;;;;;;;;;;;;;;6265216;22;20443;-88
2022/10/21 11:17:04;;;;;;;;;;;;;;;;;;6238833;22;19930;-88
2022/10/21 11:19:30;;;;;;;;;;;;;;;;;;6237359;22;20260;-88
2022/10/21 11:22:01;;;;;;;;;;;;;;;;;;6264915;22;19922;-88
2022/10/21 11:24:30;;;;;;;;;;;;;;;;;;6264392;22;19926;-88
2022/10/21 11:27:07;;;;;;;;;;;;;;;;;;6237401;22;19915;-88
2022/10/21 11:29:35;;;;;;;;;;;;;;;;;;6239979;22;19919;-88
2022/10/21 11:32:11;;;;;;;;;;;;;;;;;;;;;
2022/10/21 11:34:40;;;;;;;;;;;;;;;;;;6266505;22;19919;-89
2022/10/21 11:37:06;;;;;;;;;;;;;;;;;;6235364;22;19926;-88
2022/10/21 11:39:32;;;;;;;;;;;;;;;;;;6265018;22;19950;-88
2022/10/21 11:41:58;;;;;;;;;;;;;;;;;;6234014;22;19926;-86
2022/10/21 11:44:24;;;;;;;;;;;;;;;;;;6261267;22;20377;-88
2022/10/21 11:46:58;;;;;;;;;;;;;;;;;;6238470;22;19926;-89
2022/10/21 11:49:26;;;;;;;;;;;;;;;;;;6235797;22;19919;-89
2022/10/21 11:51:52;;;;;;;;;;;;;;;;;;6236884;22;20079;-88
2022/10/21 11:54:18;;;;;;;;;;;;;;;;;;6237794;22;19986;-88
2022/10/21 11:56:45;;;;;;;;;;;;;;;;;;6282924;22;19925;-88
2022/10/21 11:59:10;;;;;;;;;;;;;;;;;;6268543;22;19922;-88
2022/10/21 12:01:42;;;;;;;;;;;;;;;;;;6270734;22;20270;-88
2022/10/21 12:04:08;;;;;;;;;;;;;;;;;;6267744;22;19915;-88
2022/10/21 12:06:37;;;;;;;;;;;;;;;;;;6271506;22;19993;-88
2022/10/21 12:09:06;;;;;;;;;;;;;;;;;;6267764;22;19919;-88
2022/10/21 12:11:37;;;;;;;;;;;;;;;;;;6270190;22;19993;-88
2022/10/21 12:14:06;;;;;;;;;;;;;;;;;;6268383;22;19925;-88
2022/10/21 12:16:32;;;;;;;;;;;;;;;;;;6271166;22;19946;-88
2022/10/21 12:19:01;;;;;;;;;;;;;;;;;;6269195;22;19915;-89
2022/10/21 12:21:27;;;;;;;;;;;;;;;;;;6272163;22;19919;-88
2022/10/21 12:23:53;;;;;;;;;;;;;;;;;;6270499;22;19926;-89
2022/10/21 12:26:19;;;;;;;;;;;;;;;;;;6265198;22;19936;-89
2022/10/21 12:28:45;;;;;;;;;;;;;;;;;;6268687;22;20276;-88
2022/10/21 12:31:11;;;;;;;;;;;;;;;;;;6269215;22;20036;-89
2022/10/21 12:33:39;;;;;;;;;;;;;;;;;;6269698;22;19922;-89
2022/10/21 12:36:08;;;;;;;;;;;;;;;;;;6268242;22;19921;-89
2022/10/21 12:38:42;;;;;;;;;;;;;;;;;;6267949;22;19924;-88
2022/10/21 12:41:11;;;;;;;;;;;;;;;;;;6267286;22;19976;-89
2022/10/21 12:43:39;;;;;;;;;;;;;;;;;;6266848;22;19915;-89
2022/10/21 12:46:11;;;;;;;;;;;;;;;;;;6266117;22;20224;-89
2022/10/21 12:48:37;;;;;;;;;;;;;;;;;;6270548;22;19915;-88
2022/10/21 12:51:03;;;;;;;;;;;;;;;;;;6265009;22;19915;-90
2022/10/21 12:53:29;;;;;;;;;;;;;;;;;;6267359;22;19915;-89
2022/10/21 12:55:55;;;;;;;;;;;;;;;;;;6267652;22;19988;-89
2022/10/21 12:58:24;;;;;;;;;;;;;;;;;;6263308;22;19923;-89
2022/10/21 13:00:53;;;;;;;;;;;;;;;;;;6263936;22;20930;-89
2022/10/21 13:03:25;;;;;;;;;;;;;;;;;;6264125;22;19930;-89
2022/10/21 13:05:51;;;;;;;;;;;;;;;;;;6270641;22;20095;-88
2022/10/21 13:08:17;;;;;;;;;;;;;;;;;;6265281;22;20264;-89
2022/10/21 13:10:46;;;;;;;;;;;;;;;;;;6270662;22;19915;-89
2022/10/21 13:13:12;;;;;;;;;;;;;;;;;;6267916;22;19918;-90
2022/10/21 13:15:38;;;;;;;;;;;;;;;;;;6270276;22;19919;-89
2022/10/21 13:18:10;;;;;;;;;;;;;;;;;;6259846;22;19950;-89
2022/10/21 13:20:38;;;;;;;;;;;;;;;;;;6264220;22;19942;-89
2022/10/21 13:23:23;;;;;;;;;;;;;;;;;;6261362;22;20213;-90
2022/10/21 13:25:49;;;;;;;;;;;;;;;;;;6267325;22;19925;-89
2022/10/21 13:28:22;;;;;;;;;;;;;;;;;;6263992;22;20383;-89
2022/10/21 13:30:48;;;;;;;;;;;;;;;;;;6265939;22;19915;-89
2022/10/21 13:33:17;;;;;;;;;;;;;;;;;;6264755;22;19926;-90
2022/10/21 13:35:45;;;;;;;;;;;;;;;;;;6264108;22;20041;-89
2022/10/21 13:38:11;;;;;;;;;;;;;;;;;;6261775;22;19919;-89
2022/10/21 13:40:37;;;;;;;;;;;;;;;;;;6264970;22;19919;-89
2022/10/21 13:43:04;;;;;;;;;;;;;;;;;;6264591;22;19926;-89
2022/10/21 13:45:32;;;;;;;;;;;;;;;;;;6267633;22;19960;-89
2022/10/21 13:48:07;;;;;;;;;;;;;;;;;;6263796;22;19918;-89
2022/10/21 13:50:33;;;;;;;;;;;;;;;;;;6264792;22;20283;-89
2022/10/21 13:52:59;;;;;;;;;;;;;;;;;;6265418;22;19919;-90
2022/10/21 13:55:25;;;;;;;;;;;;;;;;;;6266492;22;19958;-90
2022/10/21 13:57:51;;;;;;;;;;;;;;;;;;6266675;22;20300;-89
2022/10/21 14:00:17;;;;;;;;;;;;;;;;;;6262770;22;20354;-90
2022/10/21 14:02:43;;;;;;;;;;;;;;;;;;6266590;22;19926;-90
2022/10/21 14:05:09;;;;;;;;;;;;;;;;;;6291815;22;19949;-89
2022/10/21 14:07:35;;;;;;;;;;;;;;;;;;6267355;22;19925;-89
2022/10/21 14:10:09;;;;;;;;;;;;;;;;;;6263598;22;19923;-88
2022/10/21 14:12:35;;;;;;;;;;;;;;;;;;6268141;22;19923;-89
2022/10/21 14:15:07;;;;;;;;;;;;;;;;;;6264185;22;19926;-89
2022/10/21 14:17:35;;;;;;;;;;;;;;;;;;6267258;22;20040;-89
2022/10/21 14:20:01;;;;;;;;;;;;;;;;;;6264228;22;19968;-89
2022/10/21 14:22:30;;;;;;;;;;;;;;;;;;6268546;22;20335;-89
2022/10/21 14:25:03;;;;;;;;;;;;;;;;;;6267674;22;20288;-89
2022/10/21 14:27:32;;;;;;;;;;;;;;;;;;6266019;22;20346;-89
2022/10/21 14:30:01;;;;;;;;;;;;;;;;;;6264255;22;19919;-88
2022/10/21 14:32:27;;;;;;;;;;;;;;;;;;6266821;22;19926;-89
2022/10/21 14:34:53;;;;;;;;;;;;;;;;;;6268397;22;19964;-89
2022/10/21 14:37:23;;;;;;;;;;;;;;;;;;6267148;22;20284;-90
2022/10/21 14:39:49;;;;;;;;;;;;;;;;;;6267868;22;19972;-89
2022/10/21 14:42:23;;;;;;;;;;;;;;;;;;6263514;22;20418;-89
2022/10/21 14:44:49;;;;;;;;;;;;;;;;;;6265404;22;19919;-89
2022/10/21 14:47:18;;;;;;;;;;;;;;;;;;6266263;22;19922;-88
2022/10/21 14:49:44;;;;;;;;;;;;;;;;;;6270956;22;19925;-89
2022/10/21 14:52:12;;;;;;;;;;;;;;;;;;6265921;22;19915;-89
2022/10/21 14:54:38;;;;;;;;;;;;;;;;;;6269184;22;19918;-89
2022/10/21 14:57:05;;;;;;;;;;;;;;;;;;6263241;22;19924;-89
2022/10/21 14:59:36;;;;;;;;;;;;;;;;;;6266633;22;20379;-89
2022/10/21 15:02:11;;;;;;;;;;;;;;;;;;6238462;22;19927;-89
2022/10/21 15:04:37;;;;;;;;;;;;;;;;;;6236758;22;19915;-89
2022/10/21 15:07:03;;;;;;;;;;;;;;;;;;6237914;22;19919;-89
2022/10/21 15:09:29;;;;;;;;;;;;;;;;;;6241055;22;19969;-89
2022/10/21 15:11:57;;;;;;;;;;;;;;;;;;6236930;22;19915;-89
2022/10/21 15:14:29;;;;;;;;;;;;;;;;;;6235135;22;19926;-89
2022/10/21 15:16:55;;;;;;;;;;;;;;;;;;6235765;22;19993;-90
2022/10/21 15:19:27;;;;;;;;;;;;;;;;;;6242566;22;20021;-89
2022/10/21 15:21:53;;;;;;;;;;;;;;;;;;6241714;22;19923;-90
2022/10/21 15:24:19;;;;;;;;;;;;;;;;;;6233696;22;20240;-90
2022/10/21 15:26:45;;;;;;;;;;;;;;;;;;6234951;22;20239;-90
2022/10/21 15:29:17;;;;;;;;;;;;;;;;;;6234536;22;19923;-91
2022/10/21 15:31:43;;;;;;;;;;;;;;;;;;6239883;22;19919;-91
2022/10/21 15:34:12;;;;;;;;;;;;;;;;;;6233634;22;19919;-92
2022/10/21 15:36:41;;;;;;;;;;;;;;;;;;6234391;22;19923;-92
2022/10/21 15:39:09;;;;;;;;;;;;;;;;;;6231665;22;19946;-91
2022/10/21 15:41:38;;;;;;;;;;;;;;;;;;6259641;22;19974;-92
2022/10/21 15:44:07;;;;;;;;;;;;;;;;;;6233511;22;19922;-91
2022/10/21 15:46:44;;;;;;;;;;;;;;;;;;6236399;22;19990;-92
2022/10/21 15:49:13;;;;;;;;;;;;;;;;;;6260199;22;19998;-91
2022/10/21 15:51:42;;;;;;;;;;;;;;;;;;6237981;22;19919;-91
2022/10/21 15:54:14;;;;;;;;;;;;;;;;;;6233833;22;20283;-91
2022/10/21 16:02:38;;;;;;;;;;;;;;;;;;6254960;22;20233;-91
2022/10/21 16:05:08;;;;;;;;;;;;;;;;;;6263626;22;19918;-91
2022/10/21 16:10:29;;;;;;;;;;;;;;;;;;6267689;22;20395;-92
2022/10/21 16:13:09;;;;;;;;;;;;;;;;;;6265756;22;20002;-91
2022/10/21 16:15:38;;;;;;;;;;;;;;;;;;6266831;22;19915;-91
2022/10/21 16:18:07;;;;;;;;;;;;;;;;;;6265422;22;19925;-91
2022/10/21 16:20:39;;;;;;;;;;;;;;;;;;6285770;22;20314;-91
2022/10/21 16:23:18;;;;;;;;;;;;;;;;;;;;;
2022/10/21 16:47:47;;;;;;;;;;;;;;;;;;;;;
2022/10/21 17:03:58;;;;;;;;;;;;;;;;;;5908274;24;19975;-91
2022/10/21 17:13:07;;;;;;;;;;;;;;;;;;;;;
2022/10/21 17:32:02;;;;;;;;;;;;;;;;;;6059101;23;20422;-91
2022/10/21 17:34:35;;;;;;;;;;;;;;;;;;6025079;23;20296;-91
2022/10/21 17:37:09;;;;;;;;;;;;;;;;;;6087793;23;19968;-91
2022/10/21 17:39:40;;;;;;;;;;;;;;;;;;6117920;23;19927;-91
2022/10/21 17:42:06;;;;;;;;;;;;;;;;;;6138036;23;20337;-90
2022/10/21 17:44:42;;;;;;;;;;;;;;;;;;6139723;23;19959;-90
2022/10/21 17:50:22;;;;;;;;;;;;;;;;;;6226213;22;19989;-90
2022/10/21 17:53:12;;;;;;;;;;;;;;;;;;;;;
2022/10/21 17:55:38;;;;;;;;;;;;;;;;;;6237334;22;19922;-90
2022/10/21 17:58:07;;;;;;;;;;;;;;;;;;6232767;22;20290;-90
2022/10/21 18:00:39;;;;;;;;;;;;;;;;;;6255914;22;20324;-90
2022/10/21 18:03:05;;;;;;;;;;;;;;;;;;6262840;22;20456;-91